Time;durP1;ratioP1;P1;durP2;ratioP2;P2;SDS_P1;SDS_P2;PMS_P1;PMS_P2;Temp;Humidity;BMP_temperature;BMP_pressure;BME280_temperature;BME280_humidity;BME280_pressure;Samples;Min_cycle;Max_cycle;Signal;HPM_P1;HPM_P2
2023/03/02 00:02:43;;;;;;;17.50;11.05;;;;;;;0.07;49.20;100481.16;10352386;28;20618;-81
2023/03/02 00:07:44;;;;;;;18.08;10.88;;;;;;;0.04;49.49;100480.31;10350813;28;20524;-81
2023/03/02 00:12:46;;;;;;;16.85;11.10;;;;;;;0.05;50.03;100482.03;10350355;28;20050;-80
2023/03/02 00:17:48;;;;;;;16.17;10.30;;;;;;;0.02;50.14;100475.19;10350488;28;20080;-81
2023/03/02 00:22:50;;;;;;;16.38;10.43;;;;;;;0.03;50.08;100476.06;10349264;28;20145;-81
2023/03/02 00:27:51;;;;;;;17.48;10.73;;;;;;;-0.02;50.16;100475.22;10347909;28;20056;-80
2023/03/02 00:32:53;;;;;;;17.83;10.80;;;;;;;-0.03;50.11;100470.97;10350938;28;20053;-80
2023/03/02 00:37:55;;;;;;;17.35;10.38;;;;;;;-0.09;50.28;100466.72;10353934;28;20198;-80
2023/03/02 00:42:56;;;;;;;17.13;10.45;;;;;;;-0.09;50.79;100463.31;10357847;28;20050;-79
2023/03/02 00:47:58;;;;;;;17.52;10.55;;;;;;;-0.10;50.83;100470.16;10349111;28;20045;-79
2023/03/02 00:53:00;;;;;;;17.63;10.73;;;;;;;-0.08;50.74;100460.72;10355712;28;20054;-79
2023/03/02 00:58:03;;;;;;;16.17;9.88;;;;;;;-0.07;50.47;100457.28;10351832;28;20149;-80
2023/03/02 01:03:04;;;;;;;17.15;9.98;;;;;;;-0.06;50.92;100456.41;10351770;28;20041;-78
2023/03/02 01:08:06;;;;;;;15.38;9.32;;;;;;;-0.08;50.60;100449.56;10351283;28;20132;-78
2023/03/02 01:13:08;;;;;;;17.17;10.05;;;;;;;-0.06;50.54;100450.41;10348036;28;20054;-78
2023/03/02 01:18:10;;;;;;;18.90;10.00;;;;;;;-0.05;50.76;100460.69;10348774;28;20057;-78
2023/03/02 01:23:13;;;;;;;17.60;10.10;;;;;;;-0.11;50.51;100453.03;10347523;28;20061;-77
2023/03/02 01:28:15;;;;;;;15.73;10.02;;;;;;;-0.18;50.68;100448.81;10346948;28;20049;-79
2023/03/02 01:33:16;;;;;;;17.00;10.57;;;;;;;-0.21;50.76;100448.84;10348664;28;20514;-80
2023/03/02 01:38:18;;;;;;;20.35;11.57;;;;;;;-0.36;50.87;100436.97;10354737;28;20080;-80
2023/03/02 01:43:20;;;;;;;17.83;11.45;;;;;;;-0.36;51.03;100442.09;10350638;28;20052;-80
2023/03/02 01:48:30;;;;;;;18.17;10.43;;;;;;;-0.36;51.36;100442.09;10348171;28;20049;-80
2023/03/02 01:53:34;;;;;;;17.20;9.97;;;;;;;-0.40;51.33;100426.72;10348012;28;20070;-80
2023/03/02 01:58:36;;;;;;;17.17;11.15;;;;;;;-0.41;51.29;100425.84;10340146;28;20066;-80
2023/03/02 02:03:38;;;;;;;19.05;11.07;;;;;;;-0.46;51.31;100431.91;10345338;28;20486;-80
2023/03/02 02:08:40;;;;;;;16.13;10.52;;;;;;;-0.49;51.35;100432.75;10347655;28;20130;-80
2023/03/02 02:13:42;;;;;;;18.65;10.35;;;;;;;-0.45;51.18;100426.72;10348014;28;20922;-80
2023/03/02 02:18:44;;;;;;;17.88;10.45;;;;;;;-0.45;51.46;100426.72;10345946;28;20048;-80
2023/03/02 02:24:12;;;;;;;16.75;9.85;;;;;;;-0.58;51.42;100424.28;10345678;28;20050;-80
2023/03/02 02:29:21;;;;;;;17.13;10.05;;;;;;;-0.67;51.42;100414.91;10345519;28;20053;-80
2023/03/02 02:34:29;;;;;;;17.85;10.43;;;;;;;-0.70;51.35;100411.53;10353398;28;20060;-80
2023/03/02 02:39:36;;;;;;;18.48;10.48;;;;;;;-0.75;51.59;100405.53;10347191;28;20042;-80
2023/03/02 02:44:38;;;;;;;16.63;10.75;;;;;;;-0.75;51.89;100392.69;10358629;28;20174;-80
2023/03/02 02:49:40;;;;;;;17.67;10.88;;;;;;;-0.73;51.78;100393.53;10361074;28;20141;-80
2023/03/02 02:54:46;;;;;;;19.60;10.95;;;;;;;-0.80;52.12;100391.91;10365004;28;20145;-80
2023/03/02 02:59:51;;;;;;;19.05;10.98;;;;;;;-0.87;52.18;100393.66;10364106;28;20061;-80
2023/03/02 03:05:02;;;;;;;16.00;10.52;;;;;;;-0.95;51.87;100390.28;10365060;28;20061;-80
2023/03/02 03:10:17;;;;;;;16.75;10.63;;;;;;;-1.02;52.31;100385.19;10361767;28;20057;-80
2023/03/02 03:15:19;;;;;;;15.85;10.55;;;;;;;-1.07;52.27;100385.22;10358174;28;20089;-80
2023/03/02 03:20:23;;;;;;;19.60;10.52;;;;;;;-1.11;52.72;100383.53;10358514;28;20462;-80
2023/03/02 03:25:25;;;;;;;18.23;11.02;;;;;;;-1.12;52.54;100383.53;10359701;28;20057;-80
2023/03/02 03:30:27;;;;;;;19.05;11.32;;;;;;;-1.13;52.98;100380.13;10354621;28;20129;-80
2023/03/02 03:35:29;;;;;;;19.30;11.07;;;;;;;-1.18;52.85;100372.44;10360235;28;20076;-80
2023/03/02 03:40:34;;;;;;;20.13;11.88;;;;;;;-1.21;53.10;100372.44;10356881;28;20092;-80
2023/03/02 03:45:36;;;;;;;20.42;11.52;;;;;;;-1.25;53.14;100380.19;10360338;28;20129;-80
2023/03/02 03:50:37;;;;;;;18.05;11.45;;;;;;;-1.33;53.29;100381.94;10359199;28;20054;-80
2023/03/02 03:55:39;;;;;;;18.67;11.30;;;;;;;-1.38;53.54;100378.53;10355908;28;20057;-80
2023/03/02 04:00:41;;;;;;;17.98;11.52;;;;;;;-1.41;53.72;100379.38;10356439;28;20426;-80
2023/03/02 04:05:42;;;;;;;20.35;11.38;;;;;;;-1.46;53.95;100375.13;10354018;28;20058;-80
2023/03/02 04:10:44;;;;;;;21.80;11.35;;;;;;;-1.51;54.05;100382.84;10352374;28;20052;-80
2023/03/02 04:15:46;;;;;;;18.38;10.98;;;;;;;-1.54;54.19;100385.44;10351650;28;20049;-80
2023/03/02 04:20:48;;;;;;;17.05;11.25;;;;;;;-1.60;54.18;100389.72;10350096;28;20308;-80
2023/03/02 04:25:50;;;;;;;18.40;11.45;;;;;;;-1.69;54.19;100392.31;10353225;28;20145;-80
2023/03/02 04:30:52;;;;;;;18.05;11.00;;;;;;;-1.70;54.49;100388.06;10345148;28;21023;-80
2023/03/02 04:35:54;;;;;;;29.17;11.45;;;;;;;-1.71;54.39;100394.03;10350820;28;20084;-80
2023/03/02 04:40:57;;;;;;;49.80;11.88;;;;;;;-1.74;54.63;100388.94;10348920;28;20060;-80
2023/03/02 04:45:59;;;;;;;26.13;10.98;;;;;;;-1.76;54.43;100390.63;10351146;28;20050;-80
2023/03/02 04:51:00;;;;;;;20.70;10.85;;;;;;;-1.77;54.53;100394.91;10352037;28;20407;-80
2023/03/02 04:56:02;;;;;;;16.73;10.27;;;;;;;-1.73;54.53;100395.75;10349604;28;20066;-80
2023/03/02 05:01:06;;;;;;;17.45;10.13;;;;;;;-1.78;54.65;100387.22;10351851;28;20056;-80
2023/03/02 05:06:08;;;;;;;34.95;13.00;;;;;;;-1.83;54.91;100399.19;10351212;28;20058;-80
2023/03/02 05:11:21;;;;;;;18.88;11.18;;;;;;;-1.84;54.98;100405.19;10348869;28;20074;-80
2023/03/02 05:16:24;;;;;;;19.90;11.10;;;;;;;-1.89;55.01;100399.19;10352779;28;20538;-80
2023/03/02 05:21:27;;;;;;;17.40;10.60;;;;;;;-1.96;55.14;100403.50;10354884;28;20049;-80
2023/03/02 05:26:29;;;;;;;20.25;10.90;;;;;;;-1.99;55.24;100408.63;10353037;28;20140;-80
2023/03/02 05:31:40;;;;;;;16.77;10.23;;;;;;;-2.06;55.59;100402.66;10351441;28;20054;-80
2023/03/02 05:36:43;;;;;;;19.58;10.65;;;;;;;-2.15;55.30;100399.25;10350212;28;20052;-80
2023/03/02 05:41:45;;;;;;;18.58;11.30;;;;;;;-2.27;55.38;100404.41;10342778;28;20411;-80
2023/03/02 05:46:48;;;;;;;18.40;10.45;;;;;;;-2.45;55.74;100401.84;10343643;28;20054;-80
2023/03/02 05:51:50;;;;;;;15.90;10.13;;;;;;;-2.52;55.72;100400.97;10351322;28;20050;-80
2023/03/02 05:56:51;;;;;;;34.85;11.27;;;;;;;-2.71;56.38;100399.25;10349168;28;20068;-79
2023/03/02 06:01:57;;;;;;;35.28;11.82;;;;;;;-2.71;56.70;100404.38;10346305;28;20136;-80
2023/03/02 06:06:59;;;;;;;41.17;16.92;;;;;;;-2.63;56.86;100412.91;10347915;28;20049;-80
2023/03/02 06:12:01;;;;;;;34.28;15.23;;;;;;;-2.53;56.66;100414.63;10348705;28;20049;-80
2023/03/02 06:17:02;;;;;;;23.67;12.88;;;;;;;-2.55;56.80;100411.22;10349460;28;20468;-80
2023/03/02 06:22:04;;;;;;;24.45;11.85;;;;;;;-2.59;57.00;100409.50;10354428;28;20053;-79
2023/03/02 06:27:06;;;;;;;26.40;12.20;;;;;;;-2.42;56.54;100412.94;10357219;28;20946;-80
2023/03/02 06:32:09;;;;;;;21.60;10.65;;;;;;;-2.25;56.41;100426.59;10350567;28;20495;-80
2023/03/02 06:37:11;;;;;;;19.17;10.98;;;;;;;-2.13;55.99;100424.03;10351940;28;20050;-80
2023/03/02 06:42:13;;;;;;;19.00;10.48;;;;;;;-2.02;55.87;100414.59;10352248;28;20056;-81
2023/03/02 06:47:15;;;;;;;19.48;10.60;;;;;;;-1.81;55.46;100417.97;10351569;28;20137;-81
2023/03/02 06:52:18;;;;;;;21.33;11.43;;;;;;;-1.65;55.32;100419.66;10349717;28;20045;-80
2023/03/02 06:57:21;;;;;;;18.52;10.40;;;;;;;-1.43;54.78;100418.75;10347970;28;20519;-81
2023/03/02 07:02:23;;;;;;;21.33;10.60;;;;;;;-1.26;54.41;100417.81;10341713;28;20049;-81
2023/03/02 07:07:28;;;;;;;23.80;12.32;;;;;;;-0.96;54.10;100421.94;10351280;28;20084;-80
2023/03/02 07:12:37;;;;;;;24.65;11.95;;;;;;;-0.85;54.65;100430.44;10351884;28;20053;-81
2023/03/02 07:17:41;;;;;;;21.17;10.50;;;;;;;-0.60;53.65;100428.56;10350698;28;20053;-80
2023/03/02 07:22:44;;;;;;;19.77;10.13;;;;;;;-0.45;53.89;100426.72;10350699;28;20511;-79
2023/03/02 07:27:48;;;;;;;18.15;10.00;;;;;;;-0.35;53.65;100430.94;10366319;28;20116;-79
2023/03/02 07:32:50;;;;;;;20.67;10.88;;;;;;;-0.20;53.35;100421.41;10351145;28;20050;-79
2023/03/02 07:37:53;;;;;;;20.48;10.07;;;;;;;0.02;53.21;100416.06;10356417;28;20050;-80
2023/03/02 07:42:56;;;;;;;16.17;9.90;;;;;;;0.29;52.56;100420.06;10348666;28;20136;-80
2023/03/02 07:47:57;;;;;;;17.08;10.02;;;;;;;0.77;52.17;100413.53;10351176;28;20072;-80
2023/03/02 07:52:59;;;;;;;45.55;25.13;;;;;;;1.02;51.41;100404.59;10351882;28;20065;-79
2023/03/02 07:58:02;;;;;;;26.23;15.10;;;;;;;1.22;50.85;100406.03;10349209;28;20061;-80
2023/03/02 08:03:04;;;;;;;25.70;14.40;;;;;;;1.55;50.15;100402.09;10347617;28;20046;-79
2023/03/02 08:08:13;;;;;;;19.40;12.35;;;;;;;1.92;49.04;100407.50;10348858;28;20148;-81
2023/03/02 08:13:15;;;;;;;19.60;10.40;;;;;;;2.23;48.45;100396.59;10346137;28;20050;-80
2023/03/02 08:18:18;;;;;;;21.00;10.00;;;;;;;2.58;47.22;100406.25;10342399;28;20057;-80
2023/03/02 08:23:20;;;;;;;17.98;10.60;;;;;;;2.75;46.56;100403.31;10347907;28;20046;-81
2023/03/02 08:28:22;;;;;;;17.02;9.88;;;;;;;3.07;46.09;100400.06;10344762;28;20076;-81
2023/03/02 08:33:26;;;;;;;20.48;11.52;;;;;;;3.32;45.15;100396.91;10346979;28;20046;-81
2023/03/02 08:38:29;;;;;;;21.90;14.90;;;;;;;3.51;44.73;100390.41;10345311;28;20136;-81
2023/03/02 08:43:32;;;;;;;19.55;11.55;;;;;;;3.77;44.40;100377.69;10343789;28;20069;-80
2023/03/02 08:48:34;;;;;;;19.80;11.50;;;;;;;3.79;43.49;100377.66;10343120;28;20053;-81
2023/03/02 08:53:41;;;;;;;20.27;10.48;;;;;;;3.94;43.05;100371.28;10343670;28;20049;-81
2023/03/02 08:58:46;;;;;;;20.45;10.75;;;;;;;4.18;43.00;100358.53;10344719;28;20064;-81
2023/03/02 09:03:49;;;;;;;19.95;11.60;;;;;;;4.37;42.60;100351.13;10343676;28;20828;-81
2023/03/02 09:08:51;;;;;;;18.85;11.23;;;;;;;4.51;42.63;100351.59;10339375;28;20060;-81
2023/03/02 09:13:55;;;;;;;21.40;11.60;;;;;;;4.79;42.05;100342.13;10347486;28;20052;-81
2023/03/02 09:18:57;;;;;;;18.30;11.32;;;;;;;4.87;41.51;100341.88;10361998;28;20094;-81
2023/03/02 09:24:07;;;;;;;21.05;11.98;;;;;;;5.09;40.34;100338.59;10343655;28;20053;-82
2023/03/02 09:29:09;;;;;;;24.15;11.75;;;;;;;5.27;40.76;100335.41;10343821;28;20056;-81
2023/03/02 09:34:17;;;;;;;20.42;11.18;;;;;;;5.58;39.74;100332.69;10342769;28;20046;-81
2023/03/02 09:39:18;;;;;;;19.27;11.35;;;;;;;5.44;39.58;100334.88;10348282;28;20183;-81
2023/03/02 09:44:23;;;;;;;16.55;10.85;;;;;;;5.88;39.65;100334.25;10359082;28;20050;-81
2023/03/02 09:49:40;;;;;;;21.05;11.23;;;;;;;5.79;38.33;100337.16;10355675;28;20045;-80
2023/03/02 09:54:42;;;;;;;17.48;10.95;;;;;;;5.98;39.07;100332.19;10344968;28;20132;-81
2023/03/02 09:59:49;;;;;;;17.83;10.63;;;;;;;6.25;38.46;100341.63;10349437;28;20057;-81
2023/03/02 10:04:57;;;;;;;17.92;11.05;;;;;;;6.57;37.65;100332.69;10351144;28;20056;-81
2023/03/02 10:10:08;;;;;;;17.85;10.73;;;;;;;6.79;36.80;100337.03;10348761;28;20426;-82
2023/03/02 10:15:24;;;;;;;20.52;11.02;;;;;;;6.83;36.82;100324.75;10343588;28;20049;-82
2023/03/02 10:20:33;;;;;;;21.50;9.85;;;;;;;7.00;37.56;100314.53;10347531;28;20046;-81
2023/03/02 10:26:04;;;;;;;16.58;10.38;;;;;;;7.01;37.08;100313.63;10349424;28;20499;-82
2023/03/02 10:31:08;;;;;;;17.40;10.17;;;;;;;7.23;38.12;100313.63;10349534;28;20133;-82
2023/03/02 10:36:28;;;;;;;27.60;10.80;;;;;;;7.22;36.13;100309.34;10347287;28;20065;-82
2023/03/02 10:41:37;;;;;;;19.02;10.63;;;;;;;7.39;37.08;100310.34;10351151;28;20049;-82
2023/03/02 10:46:44;;;;;;;26.60;10.27;;;;;;;7.71;37.26;100311.63;10352001;28;20137;-82
2023/03/02 10:51:54;;;;;;;15.85;10.10;;;;;;;7.87;35.95;100310.94;10346890;28;20086;-82
2023/03/02 10:56:59;;;;;;;15.93;9.90;;;;;;;7.86;36.54;100301.41;10351955;28;20416;-82
2023/03/02 11:02:13;;;;;;;16.58;9.30;;;;;;;7.82;35.92;100291.19;10359104;28;20092;-82
2023/03/02 11:07:18;;;;;;;16.35;9.90;;;;;;;7.85;36.11;100281.47;10358939;28;20068;-82
2023/03/02 11:12:20;;;;;;;19.40;10.23;;;;;;;8.03;36.69;100278.09;10357457;28;20060;-82
2023/03/02 11:17:37;;;;;;;15.07;9.10;;;;;;;7.92;35.56;100269.91;10361071;28;20161;-84
2023/03/02 11:23:01;;;;;;;18.40;9.15;;;;;;;7.78;36.57;100280.06;10359761;28;20967;-82
2023/03/02 11:28:13;;;;;;;17.27;9.27;;;;;;;7.96;36.23;100265.38;10359737;28;20060;-83
2023/03/02 11:33:28;;;;;;;16.45;8.90;;;;;;;7.93;35.89;100260.34;10348574;28;20422;-83
2023/03/02 11:38:46;;;;;;;16.60;9.13;;;;;;;7.95;34.68;100264.56;10359117;28;20058;-82
2023/03/02 11:43:48;;;;;;;14.80;8.73;;;;;;;8.02;36.25;100250.34;10358103;28;20140;-83
2023/03/02 11:48:53;;;;;;;15.55;8.80;;;;;;;8.25;36.02;100240.69;10359382;28;20054;-83
2023/03/02 11:54:03;;;;;;;20.50;9.23;;;;;;;8.23;36.09;100239.91;10359899;28;20069;-83
2023/03/02 11:59:17;;;;;;;17.25;9.02;;;;;;;8.48;35.31;100235.28;10364068;28;20092;-83
2023/03/02 12:04:31;;;;;;;13.48;8.45;;;;;;;8.78;35.75;100228.63;10362704;28;20050;-83
2023/03/02 12:09:36;;;;;;;13.00;8.02;;;;;;;8.76;35.54;100226.09;10365160;28;20057;-83
2023/03/02 12:14:39;;;;;;;16.30;8.88;;;;;;;9.06;35.74;100231.59;10361475;28;20093;-83
2023/03/02 12:19:44;;;;;;;16.33;7.78;;;;;;;9.10;35.09;100217.47;10361918;28;20053;-82
2023/03/02 12:24:45;;;;;;;12.63;7.80;;;;;;;9.40;35.36;100215.13;10357128;28;20100;-82
2023/03/02 12:29:50;;;;;;;14.95;7.40;;;;;;;9.36;35.48;100201.34;10357964;28;20530;-82
2023/03/02 12:34:59;;;;;;;14.48;7.43;;;;;;;9.54;35.65;100197.81;10356894;28;20053;-83
2023/03/02 12:40:24;;;;;;;12.95;7.00;;;;;;;9.76;35.76;100191.53;10357845;28;20129;-83
2023/03/02 12:45:47;;;;;;;12.43;6.80;;;;;;;9.75;35.59;100180.22;10356886;28;20133;-82
2023/03/02 12:50:53;;;;;;;13.55;5.72;;;;;;;9.78;35.94;100168.78;10358419;28;20046;-81
2023/03/02 12:55:55;;;;;;;13.60;6.07;;;;;;;10.15;35.41;100169.34;10355431;28;20062;-80
2023/03/02 13:01:00;;;;;;;13.75;6.55;;;;;;;10.28;34.61;100165.13;10353039;28;20089;-81
2023/03/02 13:06:04;;;;;;;14.07;6.28;;;;;;;10.15;34.34;100158.06;10361124;28;20092;-81
2023/03/02 13:11:06;;;;;;;14.70;6.22;;;;;;;10.13;34.17;100155.53;10353901;28;20444;-83
2023/03/02 13:16:24;;;;;;;9.68;5.75;;;;;;;10.04;33.90;100137.72;10347514;28;20411;-82
2023/03/02 13:21:37;;;;;;;11.30;5.82;;;;;;;10.30;33.51;100138.91;10346837;28;20053;-82
2023/03/02 13:26:39;;;;;;;11.60;5.68;;;;;;;10.18;34.09;100123.91;10353006;28;20062;-81
2023/03/02 13:31:41;;;;;;;13.00;5.10;;;;;;;10.29;34.45;100121.53;10347702;28;20061;-83
2023/03/02 13:36:43;;;;;;;13.38;5.68;;;;;;;10.39;34.15;100117.50;10349722;28;20519;-81
2023/03/02 13:41:54;;;;;;;12.90;5.85;;;;;;;10.65;33.61;100119.47;10346229;28;20049;-81
2023/03/02 13:46:58;;;;;;;11.20;5.47;;;;;;;10.69;33.88;100112.28;10343557;28;20064;-81
2023/03/02 13:52:27;;;;;;;14.63;6.00;;;;;;;10.42;32.35;100110.31;10349700;28;20424;-81
2023/03/02 13:57:30;;;;;;;12.80;5.65;;;;;;;10.38;32.61;100103.56;10351299;28;20076;-81
2023/03/02 14:02:32;;;;;;;15.65;5.25;;;;;;;10.58;32.77;100105.06;10351230;28;20054;-81
2023/03/02 14:07:34;;;;;;;10.27;5.57;;;;;;;10.73;32.58;100108.56;10351566;28;20057;-81
2023/03/02 14:12:36;;;;;;;10.95;5.28;;;;;;;10.95;32.13;100099.38;10353866;28;20054;-81
2023/03/02 14:17:38;;;;;;;11.55;5.53;;;;;;;11.15;31.92;100090.41;10358765;28;20064;-81
2023/03/02 14:22:40;;;;;;;12.88;6.10;;;;;;;11.04;31.65;100093.66;10358542;28;20048;-81
2023/03/02 14:27:43;;;;;;;12.15;5.43;;;;;;;10.74;30.93;100090.19;10359497;28;20412;-81
2023/03/02 14:32:45;;;;;;;10.05;5.40;;;;;;;10.81;31.44;100099.34;10351367;28;20549;-81
2023/03/02 14:37:48;;;;;;;11.40;5.72;;;;;;;10.77;32.01;100087.38;10347955;28;20076;-81
2023/03/02 14:42:53;;;;;;;11.57;5.68;;;;;;;10.90;31.50;100085.75;10359502;28;20054;-81
2023/03/02 14:47:55;;;;;;;11.27;6.13;;;;;;;10.75;31.34;100085.78;10347264;28;20784;-82
2023/03/02 14:52:58;;;;;;;13.20;6.43;;;;;;;10.80;31.62;100086.34;10357918;28;20060;-81
2023/03/02 14:58:11;;;;;;;12.45;6.15;;;;;;;10.64;30.70;100096.03;10351236;28;20083;-81
2023/03/02 15:03:28;;;;;;;15.68;6.97;;;;;;;10.75;31.46;100091.84;10351808;28;20049;-81
2023/03/02 15:09:20;;;;;;;8.95;5.80;;;;;;;10.71;30.69;100090.34;10353374;28;20053;-81
2023/03/02 15:14:22;;;;;;;12.02;5.88;;;;;;;10.75;31.20;100094.47;10351732;28;20438;-81
2023/03/02 15:19:26;;;;;;;11.93;6.15;;;;;;;10.70;31.21;100095.66;10353548;28;20513;-81
2023/03/02 15:24:30;;;;;;;11.05;6.03;;;;;;;10.66;30.74;100096.78;10352765;28;20045;-80
2023/03/02 15:29:35;;;;;;;10.38;5.85;;;;;;;10.69;30.87;100100.06;10352772;28;20058;-81
2023/03/02 15:34:36;;;;;;;13.07;6.68;;;;;;;10.47;30.60;100107.44;10353881;28;20237;-80
2023/03/02 15:39:43;;;;;;;11.02;6.35;;;;;;;10.40;30.71;100106.09;10353178;28;20062;-81
2023/03/02 15:44:47;;;;;;;9.95;5.93;;;;;;;10.41;31.06;100111.25;10348126;28;20053;-80
2023/03/02 15:49:48;;;;;;;13.40;6.18;;;;;;;10.51;31.35;100114.19;10353403;28;20483;-81
2023/03/02 15:54:50;;;;;;;11.43;6.07;;;;;;;10.45;30.93;100106.69;10350547;28;20062;-81
2023/03/02 15:59:52;;;;;;;12.32;6.70;;;;;;;10.31;30.45;100115.31;10348565;28;20050;-80
2023/03/02 16:04:54;;;;;;;12.10;6.40;;;;;;;10.25;30.93;100109.56;10354133;28;20077;-81
2023/03/02 16:09:58;;;;;;;11.88;5.50;;;;;;;10.19;30.32;100112.53;10350781;28;20050;-80
2023/03/02 16:15:02;;;;;;;10.07;5.53;;;;;;;10.02;30.54;100116.06;10353238;28;20060;-81
2023/03/02 16:20:04;;;;;;;10.02;5.55;;;;;;;9.91;29.86;100122.81;10350992;28;20089;-81
2023/03/02 16:25:06;;;;;;;9.35;5.18;;;;;;;9.81;29.96;100122.44;10356992;28;20060;-80
2023/03/02 16:30:10;;;;;;;8.70;5.53;;;;;;;9.65;29.46;100126.75;10358090;28;20050;-80
2023/03/02 16:35:12;;;;;;;9.00;5.22;;;;;;;9.54;31.05;100132.53;10359272;28;20060;-81
2023/03/02 16:40:16;;;;;;;10.40;4.97;;;;;;;9.35;30.23;100128.34;10357242;28;20049;-80
2023/03/02 16:45:21;;;;;;;9.02;4.90;;;;;;;9.11;29.76;100134.84;10355933;28;20081;-81
2023/03/02 16:50:24;;;;;;;10.38;5.18;;;;;;;9.05;30.15;100140.34;10354320;28;20060;-80
2023/03/02 16:55:26;;;;;;;10.55;4.68;;;;;;;8.76;30.70;100144.41;10353147;28;20503;-81
2023/03/02 17:00:30;;;;;;;8.65;4.80;;;;;;;8.57;31.46;100141.84;10358481;28;20050;-81
2023/03/02 17:05:31;;;;;;;7.45;4.43;;;;;;;8.29;31.03;100156.25;10353426;28;20132;-80
2023/03/02 17:10:33;;;;;;;10.15;4.20;;;;;;;8.18;30.85;100154.13;10348019;28;20061;-80
2023/03/02 17:15:37;;;;;;;7.55;4.30;;;;;;;7.94;33.13;100153.47;10349683;28;20046;-81
2023/03/02 17:20:43;;;;;;;9.73;4.75;;;;;;;7.78;32.54;100160.31;10350024;28;20049;-82
2023/03/02 17:25:48;;;;;;;11.40;5.40;;;;;;;7.59;33.04;100166.41;10351900;28;20479;-81
2023/03/02 17:30:51;;;;;;;9.23;5.30;;;;;;;7.31;33.63;100182.34;10348365;28;20061;-80
2023/03/02 17:35:53;;;;;;;10.70;5.15;;;;;;;7.14;33.07;100188.25;10349603;28;20057;-82
2023/03/02 17:41:00;;;;;;;7.57;4.60;;;;;;;7.12;33.40;100192.66;10347031;28;20049;-81
2023/03/02 17:46:21;;;;;;;11.07;4.68;;;;;;;6.88;34.05;100206.66;10351937;28;20129;-81
2023/03/02 17:51:27;;;;;;;8.20;4.60;;;;;;;6.72;33.55;100209.94;10348601;28;20612;-80
2023/03/02 17:56:29;;;;;;;6.25;4.28;;;;;;;6.55;34.27;100217.56;10350129;28;20054;-81
2023/03/02 18:01:34;;;;;;;6.50;4.05;;;;;;;6.42;35.28;100221.53;10350480;28;20535;-81
2023/03/02 18:06:38;;;;;;;11.43;6.65;;;;;;;6.20;35.33;100229.25;10350164;28;20049;-81
2023/03/02 18:11:45;;;;;;;14.07;7.60;;;;;;;6.00;35.44;100229.16;10346177;28;20530;-81
2023/03/02 18:16:48;;;;;;;16.35;7.22;;;;;;;5.81;36.21;100230.69;10355675;28;21028;-81
2023/03/02 18:21:52;;;;;;;13.70;8.15;;;;;;;5.78;36.37;100236.00;10354395;28;20910;-81
2023/03/02 18:26:54;;;;;;;15.23;9.98;;;;;;;5.62;36.92;100235.69;10355138;28;20057;-81
2023/03/02 18:31:59;;;;;;;16.55;8.93;;;;;;;5.52;37.72;100242.09;10353173;28;20076;-82
2023/03/02 18:37:03;;;;;;;13.63;7.00;;;;;;;5.37;37.77;100250.41;10359557;28;20501;-81
2023/03/02 18:42:07;;;;;;;9.30;5.93;;;;;;;5.18;38.17;100259.69;10357851;28;20074;-81
2023/03/02 18:47:15;;;;;;;13.95;7.22;;;;;;;5.04;38.76;100267.06;10364823;28;20046;-81
2023/03/02 18:52:18;;;;;;;10.05;5.60;;;;;;;4.85;39.45;100259.00;10362506;28;20050;-81
2023/03/02 18:57:21;;;;;;;10.70;6.70;;;;;;;4.86;39.37;100267.63;10362028;28;20061;-81
2023/03/02 19:02:23;;;;;;;14.93;6.90;;;;;;;4.72;39.73;100273.22;10361241;28;20577;-81
2023/03/02 19:07:31;;;;;;;9.73;6.82;;;;;;;4.57;40.24;100271.13;10354736;28;20057;-81
2023/03/02 19:12:34;;;;;;;10.48;5.32;;;;;;;4.46;40.50;100275.75;10355688;28;20042;-81
2023/03/02 19:17:41;;;;;;;10.25;5.07;;;;;;;4.37;40.98;100276.84;10355062;28;20063;-81
2023/03/02 19:22:44;;;;;;;8.32;5.18;;;;;;;4.27;40.72;100284.97;10354595;28;20065;-80
2023/03/02 19:27:49;;;;;;;8.50;4.90;;;;;;;4.11;41.22;100279.34;10353079;28;20112;-81
2023/03/02 19:32:53;;;;;;;8.20;5.13;;;;;;;4.01;41.55;100296.03;10352402;28;20078;-82
2023/03/02 19:37:58;;;;;;;11.68;6.82;;;;;;;3.93;42.07;100295.38;10351619;28;20061;-82
2023/03/02 19:43:01;;;;;;;16.88;9.70;;;;;;;3.79;41.92;100297.47;10345358;28;20250;-82
2023/03/02 19:48:05;;;;;;;10.93;6.22;;;;;;;3.58;42.88;100298.84;10342240;28;20452;-82
2023/03/02 19:53:08;;;;;;;10.77;6.40;;;;;;;3.54;43.52;100310.16;10346577;28;20046;-82
2023/03/02 19:58:15;;;;;;;14.82;9.23;;;;;;;3.37;43.20;100311.47;10347351;28;20058;-81
2023/03/02 20:03:19;;;;;;;15.38;7.07;;;;;;;3.13;43.54;100307.72;10352273;28;20049;-81
2023/03/02 20:08:21;;;;;;;9.82;5.70;;;;;;;3.09;43.77;100313.03;10348781;28;20495;-81
2023/03/02 20:13:25;;;;;;;9.57;5.30;;;;;;;3.09;43.80;100310.44;10350184;28;20038;-81
2023/03/02 20:18:29;;;;;;;9.85;5.60;;;;;;;3.09;44.11;100313.03;10350187;28;20061;-81
2023/03/02 20:23:38;;;;;;;13.82;8.38;;;;;;;2.95;44.36;100319.34;10351457;28;20050;-80
2023/03/02 20:28:47;;;;;;;10.07;6.10;;;;;;;2.90;45.00;100317.78;10350864;28;20049;-80
2023/03/02 20:33:54;;;;;;;12.63;6.13;;;;;;;2.93;45.17;100321.13;10349097;28;20057;-81
2023/03/02 20:39:07;;;;;;;11.32;7.05;;;;;;;2.95;44.98;100323.66;10343792;28;20058;-80
2023/03/02 20:44:11;;;;;;;15.20;7.80;;;;;;;2.87;45.08;100318.69;10350563;28;20069;-81
2023/03/02 20:49:16;;;;;;;10.43;5.85;;;;;;;2.84;45.31;100326.50;10352725;28;20090;-80
2023/03/02 20:54:21;;;;;;;13.48;5.82;;;;;;;2.75;45.36;100324.13;10353859;28;20509;-80
2023/03/02 20:59:24;;;;;;;13.00;7.18;;;;;;;2.64;45.39;100330.41;10347191;28;20054;-80
2023/03/02 21:04:27;;;;;;;13.50;6.90;;;;;;;2.55;45.77;100323.69;10353584;28;20132;-80
2023/03/02 21:09:32;;;;;;;10.93;6.50;;;;;;;2.50;46.13;100322.09;10354155;28;20054;-80
2023/03/02 21:14:37;;;;;;;14.30;6.75;;;;;;;2.31;46.19;100324.19;10358317;28;20046;-79
2023/03/02 21:19:40;;;;;;;9.88;6.65;;;;;;;2.20;46.58;100334.72;10353157;28;20061;-79
2023/03/02 21:24:46;;;;;;;13.35;7.15;;;;;;;2.09;47.04;100349.56;10350815;28;20214;-79
2023/03/02 21:29:50;;;;;;;30.90;9.93;;;;;;;1.98;47.14;100354.06;10346216;28;20061;-80
2023/03/02 21:34:52;;;;;;;16.35;8.27;;;;;;;1.88;47.18;100349.97;10349260;28;20458;-79
2023/03/02 21:39:57;;;;;;;13.63;8.48;;;;;;;1.72;47.83;100360.56;10347643;28;20072;-79
2023/03/02 21:45:01;;;;;;;11.63;6.45;;;;;;;1.72;48.32;100363.16;10347358;28;20050;-79
2023/03/02 21:50:06;;;;;;;10.30;6.05;;;;;;;1.74;48.11;100358.81;10345577;28;20057;-79
2023/03/02 21:55:10;;;;;;;11.63;7.20;;;;;;;1.63;48.20;100359.00;10344322;28;20049;-80
2023/03/02 22:00:20;;;;;;;14.65;7.75;;;;;;;1.43;49.43;100365.34;10341556;28;20140;-80
2023/03/02 22:05:25;;;;;;;8.90;5.75;;;;;;;1.35;48.83;100363.75;10345726;28;20058;-79
2023/03/02 22:10:36;;;;;;;12.70;6.75;;;;;;;1.18;49.87;100365.72;10342797;28;20598;-79
2023/03/02 22:15:38;;;;;;;11.32;5.90;;;;;;;1.22;49.58;100362.22;10344119;28;20045;-79
2023/03/02 22:20:43;;;;;;;11.23;6.60;;;;;;;1.26;49.48;100371.63;10337291;28;20046;-80
2023/03/02 22:25:54;;;;;;;14.10;6.20;;;;;;;1.23;49.57;100369.09;10343470;28;20054;-80
2023/03/02 22:30:59;;;;;;;12.65;7.30;;;;;;;1.18;49.73;100376.03;10344184;28;20447;-80
2023/03/02 22:36:14;;;;;;;11.13;6.32;;;;;;;1.14;50.15;100370.94;10342664;28;21032;-80
2023/03/02 22:41:18;;;;;;;12.35;6.78;;;;;;;1.11;49.85;100368.41;10343005;28;20056;-79
2023/03/02 22:46:20;;;;;;;12.15;7.40;;;;;;;1.10;49.93;100371.84;10344962;28;20157;-79
2023/03/02 22:51:28;;;;;;;14.23;6.88;;;;;;;1.00;50.34;100362.56;10349649;28;20065;-80
2023/03/02 22:56:37;;;;;;;11.80;7.07;;;;;;;0.97;50.39;100362.63;10346124;28;20042;-79
2023/03/02 23:01:44;;;;;;;13.15;7.97;;;;;;;0.92;50.46;100361.81;10347892;28;20053;-79
2023/03/02 23:06:51;;;;;;;13.65;7.45;;;;;;;0.86;50.68;100357.63;10354742;28;20099;-79
2023/03/02 23:11:56;;;;;;;13.95;7.30;;;;;;;0.79;50.76;100362.88;10351460;28;20061;-79